sensor_id;sensor_type;location;lat;lon;timestamp;pressure;altitude;pressure_sealevel;temperature;humidity
64292;BME280;50628;51.008;13.658;2022-12-07T00:04:39;99489.22;;;2.27;100.00
64292;BME280;50628;51.008;13.658;2022-12-07T00:09:44;99486.94;;;2.21;100.00
64292;BME280;50628;51.008;13.658;2022-12-07T00:14:46;99477.19;;;2.28;100.00
64292;BME280;50628;51.008;13.658;2022-12-07T00:19:48;99485.94;;;2.24;100.00
64292;BME280;50628;51.008;13.658;2022-12-07T00:24:51;99484.84;;;2.29;100.00
64292;BME280;50628;51.008;13.658;2022-12-07T00:29:53;99464.78;;;2.36;100.00
64292;BME280;50628;51.008;13.658;2022-12-07T00:34:55;99473.25;;;2.38;100.00
64292;BME280;50628;51.008;13.658;2022-12-07T00:39:58;99472.72;;;2.31;100.00
64292;BME280;50628;51.008;13.658;2022-12-07T00:45:00;99460.34;;;2.40;100.00
64292;BME280;50628;51.008;13.658;2022-12-07T00:50:02;99457.50;;;2.44;100.00
64292;BME280;50628;51.008;13.658;2022-12-07T00:55:06;99448.88;;;2.29;100.00
64292;BME280;50628;51.008;13.658;2022-12-07T01:00:08;99453.16;;;2.29;100.00
64292;BME280;50628;51.008;13.658;2022-12-07T01:05:10;99454.00;;;2.29;100.00
64292;BME280;50628;51.008;13.658;2022-12-07T01:10:14;99461.03;;;2.26;100.00
64292;BME280;50628;51.008;13.658;2022-12-07T01:15:16;99450.19;;;2.36;100.00
64292;BME280;50628;51.008;13.658;2022-12-07T01:20:18;99449.53;;;2.33;100.00
64292;BME280;50628;51.008;13.658;2022-12-07T01:25:21;99444.09;;;2.22;100.00
64292;BME280;50628;51.008;13.658;2022-12-07T01:30:23;99458.78;;;2.02;100.00
64292;BME280;50628;51.008;13.658;2022-12-07T01:35:25;99458.97;;;1.82;100.00
64292;BME280;50628;51.008;13.658;2022-12-07T01:40:28;99451.38;;;1.79;100.00
64292;BME280;50628;51.008;13.658;2022-12-07T01:45:39;99450.72;;;1.75;100.00
64292;BME280;50628;51.008;13.658;2022-12-07T01:50:43;99457.28;;;1.81;100.00
64292;BME280;50628;51.008;13.658;2022-12-07T01:55:50;99461.75;;;1.77;100.00
64292;BME280;50628;51.008;13.658;2022-12-07T02:00:53;99463.53;;;1.75;100.00
64292;BME280;50628;51.008;13.658;2022-12-07T02:05:56;99462.09;;;1.52;100.00
64292;BME280;50628;51.008;13.658;2022-12-07T02:11:01;99450.25;;;1.49;100.00
64292;BME280;50628;51.008;13.658;2022-12-07T02:16:13;99451.13;;;1.48;100.00
64292;BME280;50628;51.008;13.658;2022-12-07T02:21:22;99441.75;;;1.66;100.00
64292;BME280;50628;51.008;13.658;2022-12-07T02:26:50;99435.31;;;1.75;100.00
64292;BME280;50628;51.008;13.658;2022-12-07T02:32:04;99429.38;;;1.75;100.00
64292;BME280;50628;51.008;13.658;2022-12-07T02:37:12;99436.97;;;1.76;100.00
64292;BME280;50628;51.008;13.658;2022-12-07T02:42:20;99424.75;;;1.81;100.00
64292;BME280;50628;51.008;13.658;2022-12-07T02:47:28;99414.47;;;1.81;100.00
64292;BME280;50628;51.008;13.658;2022-12-07T02:52:31;99405.72;;;1.85;100.00
64292;BME280;50628;51.008;13.658;2022-12-07T02:57:47;99399.78;;;1.85;100.00
64292;BME280;50628;51.008;13.658;2022-12-07T03:02:58;99398.34;;;1.97;100.00
64292;BME280;50628;51.008;13.658;2022-12-07T03:08:04;99396.06;;;1.90;100.00
64292;BME280;50628;51.008;13.658;2022-12-07T03:13:12;99393.50;;;1.90;100.00
64292;BME280;50628;51.008;13.658;2022-12-07T03:18:21;99385.88;;;1.89;100.00
64292;BME280;50628;51.008;13.658;2022-12-07T03:23:25;99381.00;;;1.84;100.00
64292;BME280;50628;51.008;13.658;2022-12-07T03:28:31;99370.13;;;1.79;100.00
64292;BME280;50628;51.008;13.658;2022-12-07T03:33:42;99371.72;;;1.82;100.00
64292;BME280;50628;51.008;13.658;2022-12-07T03:38:50;99370.03;;;1.81;100.00
64292;BME280;50628;51.008;13.658;2022-12-07T03:43:55;99373.34;;;1.83;100.00
64292;BME280;50628;51.008;13.658;2022-12-07T03:49:02;99364.41;;;1.74;100.00
64292;BME280;50628;51.008;13.658;2022-12-07T03:54:10;99367.09;;;1.71;100.00
64292;BME280;50628;51.008;13.658;2022-12-07T03:59:14;99363.88;;;1.67;100.00
64292;BME280;50628;51.008;13.658;2022-12-07T04:04:18;99361.47;;;1.64;100.00
64292;BME280;50628;51.008;13.658;2022-12-07T04:09:20;99350.72;;;1.73;100.00
64292;BME280;50628;51.008;13.658;2022-12-07T04:14:22;99350.44;;;1.62;100.00
64292;BME280;50628;51.008;13.658;2022-12-07T04:19:26;99336.47;;;1.68;100.00
64292;BME280;50628;51.008;13.658;2022-12-07T04:24:29;99328.56;;;1.55;100.00
64292;BME280;50628;51.008;13.658;2022-12-07T04:29:31;99331.28;;;1.52;100.00
64292;BME280;50628;51.008;13.658;2022-12-07T04:34:34;99327.22;;;1.48;100.00
64292;BME280;50628;51.008;13.658;2022-12-07T04:39:36;99322.56;;;1.39;100.00
64292;BME280;50628;51.008;13.658;2022-12-07T04:44:38;99316.81;;;1.34;100.00
64292;BME280;50628;51.008;13.658;2022-12-07T04:49:42;99294.41;;;1.20;100.00
64292;BME280;50628;51.008;13.658;2022-12-07T04:54:43;99296.97;;;1.20;100.00
64292;BME280;50628;51.008;13.658;2022-12-07T04:59:45;99300.47;;;1.19;100.00
64292;BME280;50628;51.008;13.658;2022-12-07T05:04:48;99287.88;;;1.32;100.00
64292;BME280;50628;51.008;13.658;2022-12-07T05:09:50;99277.06;;;1.25;100.00
64292;BME280;50628;51.008;13.658;2022-12-07T05:14:52;99283.94;;;1.24;100.00
64292;BME280;50628;51.008;13.658;2022-12-07T05:19:55;99275.72;;;1.18;100.00
64292;BME280;50628;51.008;13.658;2022-12-07T05:24:57;99274.66;;;1.22;100.00
64292;BME280;50628;51.008;13.658;2022-12-07T05:29:59;99268.03;;;1.18;100.00
64292;BME280;50628;51.008;13.658;2022-12-07T05:35:03;99266.97;;;1.22;100.00
64292;BME280;50628;51.008;13.658;2022-12-07T05:40:07;99261.25;;;1.34;100.00
64292;BME280;50628;51.008;13.658;2022-12-07T05:45:09;99258.59;;;1.36;100.00
64292;BME280;50628;51.008;13.658;2022-12-07T05:50:12;99255.13;;;1.37;100.00
64292;BME280;50628;51.008;13.658;2022-12-07T05:55:14;99236.19;;;1.39;100.00
64292;BME280;50628;51.008;13.658;2022-12-07T06:00:16;99240.41;;;1.40;100.00
64292;BME280;50628;51.008;13.658;2022-12-07T06:05:20;99237.94;;;1.39;100.00
64292;BME280;50628;51.008;13.658;2022-12-07T06:10:22;99234.66;;;1.52;100.00
64292;BME280;50628;51.008;13.658;2022-12-07T06:15:23;99227.53;;;1.58;100.00
64292;BME280;50628;51.008;13.658;2022-12-07T06:20:27;99223.28;;;1.74;100.00
64292;BME280;50628;51.008;13.658;2022-12-07T06:25:29;99230.72;;;1.79;100.00
64292;BME280;50628;51.008;13.658;2022-12-07T06:30:31;99221.38;;;1.93;100.00
64292;BME280;50628;51.008;13.658;2022-12-07T06:35:34;99235.03;;;1.94;100.00
64292;BME280;50628;51.008;13.658;2022-12-07T06:40:36;99235.31;;;2.05;100.00
64292;BME280;50628;51.008;13.658;2022-12-07T06:45:38;99231.00;;;1.90;100.00
64292;BME280;50628;51.008;13.658;2022-12-07T06:50:41;99243.59;;;1.94;100.00
64292;BME280;50628;51.008;13.658;2022-12-07T06:55:43;99240.09;;;1.95;100.00
64292;BME280;50628;51.008;13.658;2022-12-07T07:00:45;99242.50;;;1.99;100.00
64292;BME280;50628;51.008;13.658;2022-12-07T07:05:48;99261.44;;;1.96;100.00
64292;BME280;50628;51.008;13.658;2022-12-07T07:10:50;99265.94;;;2.08;100.00
64292;BME280;50628;51.008;13.658;2022-12-07T07:15:52;99253.00;;;1.94;100.00
64292;BME280;50628;51.008;13.658;2022-12-07T07:20:55;99264.34;;;1.90;100.00
64292;BME280;50628;51.008;13.658;2022-12-07T07:25:57;99271.28;;;1.72;100.00
64292;BME280;50628;51.008;13.658;2022-12-07T07:30:59;99273.16;;;1.68;100.00
64292;BME280;50628;51.008;13.658;2022-12-07T07:36:02;99284.75;;;1.76;100.00
64292;BME280;50628;51.008;13.658;2022-12-07T07:41:04;99285.41;;;1.97;100.00
64292;BME280;50628;51.008;13.658;2022-12-07T07:46:06;99279.94;;;2.19;100.00
64292;BME280;50628;51.008;13.658;2022-12-07T07:51:09;99274.91;;;2.17;100.00
64292;BME280;50628;51.008;13.658;2022-12-07T07:56:11;99290.44;;;2.14;100.00
64292;BME280;50628;51.008;13.658;2022-12-07T08:01:14;99281.44;;;2.07;100.00
64292;BME280;50628;51.008;13.658;2022-12-07T08:06:18;99285.06;;;2.19;100.00
64292;BME280;50628;51.008;13.658;2022-12-07T08:11:20;99286.41;;;2.26;100.00
64292;BME280;50628;51.008;13.658;2022-12-07T08:16:22;99283.03;;;2.25;100.00
64292;BME280;50628;51.008;13.658;2022-12-07T08:21:25;99280.03;;;2.33;100.00
64292;BME280;50628;51.008;13.658;2022-12-07T08:26:27;99285.50;;;2.43;100.00
64292;BME280;50628;51.008;13.658;2022-12-07T08:31:28;99262.47;;;2.41;100.00
64292;BME280;50628;51.008;13.658;2022-12-07T08:36:32;99262.97;;;2.48;100.00
64292;BME280;50628;51.008;13.658;2022-12-07T08:41:34;99275.22;;;2.58;100.00
64292;BME280;50628;51.008;13.658;2022-12-07T08:46:38;99272.56;;;2.60;100.00
64292;BME280;50628;51.008;13.658;2022-12-07T08:51:42;99267.34;;;2.62;100.00
64292;BME280;50628;51.008;13.658;2022-12-07T08:56:45;99282.75;;;2.62;100.00
64292;BME280;50628;51.008;13.658;2022-12-07T09:01:48;99275.03;;;2.62;100.00
64292;BME280;50628;51.008;13.658;2022-12-07T09:06:51;99272.78;;;2.71;100.00
64292;BME280;50628;51.008;13.658;2022-12-07T09:11:53;99284.34;;;2.94;100.00
64292;BME280;50628;51.008;13.658;2022-12-07T09:16:56;99274.03;;;3.10;100.00
64292;BME280;50628;51.008;13.658;2022-12-07T09:22:07;99267.41;;;3.06;100.00
64292;BME280;50628;51.008;13.658;2022-12-07T09:27:09;99267.34;;;3.08;100.00
64292;BME280;50628;51.008;13.658;2022-12-07T09:32:11;99274.94;;;3.09;100.00
64292;BME280;50628;51.008;13.658;2022-12-07T09:37:14;99279.19;;;3.24;100.00
64292;BME280;50628;51.008;13.658;2022-12-07T09:42:26;99278.59;;;3.35;100.00
64292;BME280;50628;51.008;13.658;2022-12-07T09:47:29;99269.97;;;3.65;100.00
64292;BME280;50628;51.008;13.658;2022-12-07T09:52:32;99274.50;;;3.76;100.00
64292;BME280;50628;51.008;13.658;2022-12-07T09:57:34;99288.81;;;3.80;100.00
64292;BME280;50628;51.008;13.658;2022-12-07T10:02:38;99264.00;;;3.93;100.00
64292;BME280;50628;51.008;13.658;2022-12-07T10:07:43;99245.41;;;3.88;100.00
64292;BME280;50628;51.008;13.658;2022-12-07T10:12:57;99234.41;;;3.72;100.00
64292;BME280;50628;51.008;13.658;2022-12-07T10:17:59;99246.19;;;3.76;100.00
64292;BME280;50628;51.008;13.658;2022-12-07T10:23:05;99244.13;;;3.95;100.00
64292;BME280;50628;51.008;13.658;2022-12-07T10:28:13;99226.81;;;4.11;100.00
64292;BME280;50628;51.008;13.658;2022-12-07T10:33:27;99224.59;;;4.05;100.00
64292;BME280;50628;51.008;13.658;2022-12-07T10:38:31;99229.69;;;4.07;100.00
64292;BME280;50628;51.008;13.658;2022-12-07T10:43:33;99227.56;;;3.99;100.00
64292;BME280;50628;51.008;13.658;2022-12-07T10:48:39;99233.66;;;3.98;100.00
64292;BME280;50628;51.008;13.658;2022-12-07T10:53:54;99226.00;;;3.97;100.00
64292;BME280;50628;51.008;13.658;2022-12-07T10:59:09;99227.84;;;3.95;100.00
64292;BME280;50628;51.008;13.658;2022-12-07T11:04:22;99208.50;;;4.16;100.00
64292;BME280;50628;51.008;13.658;2022-12-07T11:09:47;99212.53;;;4.20;100.00
64292;BME280;50628;51.008;13.658;2022-12-07T11:14:56;99201.59;;;4.17;100.00
64292;BME280;50628;51.008;13.658;2022-12-07T11:20:11;99195.81;;;4.13;100.00
64292;BME280;50628;51.008;13.658;2022-12-07T11:25:20;99193.63;;;4.07;100.00
64292;BME280;50628;51.008;13.658;2022-12-07T11:30:29;99215.19;;;3.92;100.00
64292;BME280;50628;51.008;13.658;2022-12-07T11:35:45;99215.44;;;3.87;100.00
64292;BME280;50628;51.008;13.658;2022-12-07T11:40:56;99205.19;;;3.44;100.00
64292;BME280;50628;51.008;13.658;2022-12-07T11:46:15;99195.91;;;3.41;100.00
64292;BME280;50628;51.008;13.658;2022-12-07T11:51:19;99204.06;;;3.62;100.00
64292;BME280;50628;51.008;13.658;2022-12-07T11:56:26;99189.09;;;3.83;100.00
64292;BME280;50628;51.008;13.658;2022-12-07T12:01:49;99197.78;;;3.95;100.00
64292;BME280;50628;51.008;13.658;2022-12-07T12:06:52;99188.75;;;4.02;100.00
64292;BME280;50628;51.008;13.658;2022-12-07T12:12:08;99179.28;;;4.03;100.00
64292;BME280;50628;51.008;13.658;2022-12-07T12:17:28;99175.53;;;3.94;100.00
64292;BME280;50628;51.008;13.658;2022-12-07T12:22:36;99171.16;;;3.82;100.00
64292;BME280;50628;51.008;13.658;2022-12-07T12:27:40;99202.63;;;3.58;100.00
64292;BME280;50628;51.008;13.658;2022-12-07T12:32:47;99220.41;;;2.74;100.00
64292;BME280;50628;51.008;13.658;2022-12-07T12:37:50;99217.19;;;2.54;100.00
64292;BME280;50628;51.008;13.658;2022-12-07T12:42:56;99195.28;;;2.33;100.00
64292;BME280;50628;51.008;13.658;2022-12-07T12:47:58;99208.41;;;2.58;100.00
64292;BME280;50628;51.008;13.658;2022-12-07T12:53:14;99210.34;;;2.39;100.00
64292;BME280;50628;51.008;13.658;2022-12-07T12:58:42;99194.22;;;2.37;100.00
64292;BME280;50628;51.008;13.658;2022-12-07T13:03:52;99196.50;;;2.57;100.00
64292;BME280;50628;51.008;13.658;2022-12-07T13:08:56;99195.31;;;2.63;100.00
64292;BME280;50628;51.008;13.658;2022-12-07T13:19:59;99174.00;;;2.91;100.00
64292;BME280;50628;51.008;13.658;2022-12-07T13:25:05;99173.19;;;2.91;100.00
64292;BME280;50628;51.008;13.658;2022-12-07T13:30:14;99172.38;;;3.19;100.00
64292;BME280;50628;51.008;13.658;2022-12-07T13:35:33;99162.53;;;3.54;100.00
64292;BME280;50628;51.008;13.658;2022-12-07T13:40:35;99158.75;;;3.60;100.00
64292;BME280;50628;51.008;13.658;2022-12-07T13:45:38;99159.69;;;3.73;100.00
64292;BME280;50628;51.008;13.658;2022-12-07T13:50:55;99170.34;;;3.67;100.00
64292;BME280;50628;51.008;13.658;2022-12-07T13:55:58;99171.28;;;3.66;100.00
64292;BME280;50628;51.008;13.658;2022-12-07T14:01:00;99176.41;;;3.37;100.00
64292;BME280;50628;51.008;13.658;2022-12-07T14:06:06;99181.56;;;3.37;100.00
64292;BME280;50628;51.008;13.658;2022-12-07T14:11:14;99175.25;;;3.43;100.00
64292;BME280;50628;51.008;13.658;2022-12-07T14:16:23;99180.75;;;3.65;100.00
64292;BME280;50628;51.008;13.658;2022-12-07T14:21:28;99177.97;;;3.68;100.00
64292;BME280;50628;51.008;13.658;2022-12-07T14:26:31;99160.94;;;3.80;100.00
64292;BME280;50628;51.008;13.658;2022-12-07T14:31:33;99163.34;;;3.83;100.00
64292;BME280;50628;51.008;13.658;2022-12-07T14:36:36;99160.75;;;3.83;100.00
64292;BME280;50628;51.008;13.658;2022-12-07T14:41:38;99148.19;;;3.64;100.00
64292;BME280;50628;51.008;13.658;2022-12-07T14:46:52;99149.94;;;3.64;100.00
64292;BME280;50628;51.008;13.658;2022-12-07T14:51:55;99151.69;;;3.63;100.00
64292;BME280;50628;51.008;13.658;2022-12-07T14:56:57;99150.56;;;3.67;100.00
64292;BME280;50628;51.008;13.658;2022-12-07T15:01:59;99152.44;;;3.51;100.00
64292;BME280;50628;51.008;13.658;2022-12-07T15:07:04;99146.91;;;3.57;100.00
64292;BME280;50628;51.008;13.658;2022-12-07T15:12:06;99152.06;;;3.57;100.00
64292;BME280;50628;51.008;13.658;2022-12-07T15:17:10;99154.91;;;3.67;100.00
64292;BME280;50628;51.008;13.658;2022-12-07T15:22:14;99163.28;;;3.71;100.00
64292;BME280;50628;51.008;13.658;2022-12-07T15:27:16;99162.19;;;3.60;100.00
64292;BME280;50628;51.008;13.658;2022-12-07T15:32:18;99159.31;;;3.65;100.00
64292;BME280;50628;51.008;13.658;2022-12-07T15:37:22;99154.34;;;3.62;100.00
64292;BME280;50628;51.008;13.658;2022-12-07T15:42:24;99163.75;;;3.63;100.00
64292;BME280;50628;51.008;13.658;2022-12-07T15:47:26;99164.38;;;3.66;100.00
64292;BME280;50628;51.008;13.658;2022-12-07T15:52:29;99160.44;;;3.61;100.00
64292;BME280;50628;51.008;13.658;2022-12-07T15:57:31;99156.94;;;3.47;100.00
64292;BME280;50628;51.008;13.658;2022-12-07T16:02:34;99160.63;;;3.43;100.00
64292;BME280;50628;51.008;13.658;2022-12-07T16:07:37;99162.00;;;3.35;100.00
64292;BME280;50628;51.008;13.658;2022-12-07T16:12:39;99157.97;;;3.31;100.00
64292;BME280;50628;51.008;13.658;2022-12-07T16:17:41;99167.06;;;3.36;100.00
64292;BME280;50628;51.008;13.658;2022-12-07T16:22:44;99168.06;;;3.34;100.00
64292;BME280;50628;51.008;13.658;2022-12-07T16:27:46;99159.06;;;3.41;100.00
64292;BME280;50628;51.008;13.658;2022-12-07T16:32:48;99167.59;;;3.41;100.00
64292;BME280;50628;51.008;13.658;2022-12-07T16:37:51;99162.38;;;3.43;100.00
64292;BME280;50628;51.008;13.658;2022-12-07T16:42:53;99160.97;;;3.37;100.00
64292;BME280;50628;51.008;13.658;2022-12-07T16:47:54;99168.63;;;3.39;100.00
64292;BME280;50628;51.008;13.658;2022-12-07T16:52:58;99169.56;;;3.38;100.00
64292;BME280;50628;51.008;13.658;2022-12-07T16:58:00;99172.66;;;3.43;100.00
64292;BME280;50628;51.008;13.658;2022-12-07T17:28:00;99177.03;;;2.98;100.00
64292;BME280;50628;51.008;13.658;2022-12-07T17:33:04;99174.84;;;3.06;100.00
64292;BME280;50628;51.008;13.658;2022-12-07T17:38:06;99177.94;;;2.97;100.00
64292;BME280;50628;51.008;13.658;2022-12-07T17:43:07;99177.03;;;2.98;100.00
64292;BME280;50628;51.008;13.658;2022-12-07T17:48:11;99174.75;;;2.93;100.00
64292;BME280;50628;51.008;13.658;2022-12-07T17:53:13;99171.91;;;2.98;100.00
64292;BME280;50628;51.008;13.658;2022-12-07T17:58:15;99172.16;;;2.93;100.00
64292;BME280;50628;51.008;13.658;2022-12-07T18:03:18;99182.19;;;2.98;100.00
64292;BME280;50628;51.008;13.658;2022-12-07T18:08:20;99190.16;;;2.93;100.00
64292;BME280;50628;51.008;13.658;2022-12-07T18:13:21;99185.91;;;2.92;100.00
64292;BME280;50628;51.008;13.658;2022-12-07T18:18:40;99195.81;;;2.70;100.00
64292;BME280;50628;51.008;13.658;2022-12-07T18:23:43;99204.59;;;2.66;100.00
64292;BME280;50628;51.008;13.658;2022-12-07T18:28:45;99195.38;;;2.62;100.00
64292;BME280;50628;51.008;13.658;2022-12-07T18:33:49;99188.66;;;2.45;100.00
64292;BME280;50628;51.008;13.658;2022-12-07T18:38:51;99183.94;;;2.37;100.00
64292;BME280;50628;51.008;13.658;2022-12-07T18:43:52;99185.41;;;2.41;100.00
64292;BME280;50628;51.008;13.658;2022-12-07T18:48:56;99192.72;;;2.33;100.00
64292;BME280;50628;51.008;13.658;2022-12-07T18:53:58;99193.91;;;2.27;100.00
64292;BME280;50628;51.008;13.658;2022-12-07T18:59:02;99200.53;;;2.15;100.00
64292;BME280;50628;51.008;13.658;2022-12-07T19:04:23;99193.88;;;2.11;100.00
64292;BME280;50628;51.008;13.658;2022-12-07T19:09:25;99193.31;;;2.06;100.00
64292;BME280;50628;51.008;13.658;2022-12-07T19:14:29;99196.22;;;2.00;100.00
64292;BME280;50628;51.008;13.658;2022-12-07T19:19:34;99191.31;;;2.11;100.00
64292;BME280;50628;51.008;13.658;2022-12-07T19:24:37;99192.06;;;2.29;100.00
64292;BME280;50628;51.008;13.658;2022-12-07T19:29:40;99177.25;;;2.34;100.00
64292;BME280;50628;51.008;13.658;2022-12-07T19:34:45;99183.41;;;2.46;100.00
64292;BME280;50628;51.008;13.658;2022-12-07T19:39:47;99178.84;;;2.51;100.00
64292;BME280;50628;51.008;13.658;2022-12-07T19:44:51;99182.16;;;2.53;100.00
64292;BME280;50628;51.008;13.658;2022-12-07T19:49:54;99176.19;;;2.53;100.00
64292;BME280;50628;51.008;13.658;2022-12-07T19:54:57;99170.63;;;2.60;100.00
64292;BME280;50628;51.008;13.658;2022-12-07T19:59:59;99174.69;;;2.65;100.00
64292;BME280;50628;51.008;13.658;2022-12-07T20:05:03;99171.38;;;2.63;100.00
64292;BME280;50628;51.008;13.658;2022-12-07T20:10:06;99164.88;;;2.71;100.00
64292;BME280;50628;51.008;13.658;2022-12-07T20:15:09;99160.84;;;2.67;100.00
64292;BME280;50628;51.008;13.658;2022-12-07T20:20:15;99151.72;;;2.62;100.00
64292;BME280;50628;51.008;13.658;2022-12-07T20:25:17;99151.81;;;2.60;100.00
64292;BME280;50628;51.008;13.658;2022-12-07T20:30:20;99154.94;;;2.65;100.00
64292;BME280;50628;51.008;13.658;2022-12-07T20:35:23;99158.28;;;2.67;100.00
64292;BME280;50628;51.008;13.658;2022-12-07T20:40:25;99153.13;;;2.67;100.00
64292;BME280;50628;51.008;13.658;2022-12-07T20:45:27;99152.97;;;2.54;100.00
64292;BME280;50628;51.008;13.658;2022-12-07T20:50:31;99146.13;;;2.55;100.00
64292;BME280;50628;51.008;13.658;2022-12-07T20:55:33;99144.19;;;2.58;100.00
64292;BME280;50628;51.008;13.658;2022-12-07T21:00:35;99148.41;;;2.59;100.00
64292;BME280;50628;51.008;13.658;2022-12-07T21:05:39;99146.72;;;2.44;100.00
64292;BME280;50628;51.008;13.658;2022-12-07T21:10:41;99157.41;;;2.36;100.00
64292;BME280;50628;51.008;13.658;2022-12-07T21:15:42;99150.72;;;2.34;100.00
64292;BME280;50628;51.008;13.658;2022-12-07T21:20:46;99151.97;;;2.27;100.00
64292;BME280;50628;51.008;13.658;2022-12-07T21:25:47;99154.69;;;2.40;100.00
64292;BME280;50628;51.008;13.658;2022-12-07T21:30:49;99149.56;;;2.40;100.00
64292;BME280;50628;51.008;13.658;2022-12-07T21:35:53;99144.31;;;2.41;100.00
64292;BME280;50628;51.008;13.658;2022-12-07T21:40:55;99139.94;;;2.43;100.00
64292;BME280;50628;51.008;13.658;2022-12-07T21:45:57;99146.00;;;2.42;100.00
64292;BME280;50628;51.008;13.658;2022-12-07T21:51:04;99147.72;;;2.42;100.00
64292;BME280;50628;51.008;13.658;2022-12-07T21:56:13;99144.00;;;2.47;100.00
64292;BME280;50628;51.008;13.658;2022-12-07T22:01:17;99142.06;;;2.51;100.00
64292;BME280;50628;51.008;13.658;2022-12-07T22:06:25;99135.09;;;2.53;100.00
64292;BME280;50628;51.008;13.658;2022-12-07T22:11:28;99129.28;;;2.49;100.00
64292;BME280;50628;51.008;13.658;2022-12-07T22:16:30;99139.78;;;2.60;100.00
64292;BME280;50628;51.008;13.658;2022-12-07T22:21:34;99136.03;;;2.66;100.00
64292;BME280;50628;51.008;13.658;2022-12-07T22:26:36;99144.56;;;2.67;100.00
64292;BME280;50628;51.008;13.658;2022-12-07T22:31:38;99144.31;;;2.71;100.00
64292;BME280;50628;51.008;13.658;2022-12-07T22:36:42;99130.81;;;2.82;100.00
64292;BME280;50628;51.008;13.658;2022-12-07T22:41:44;99129.25;;;2.79;100.00
64292;BME280;50628;51.008;13.658;2022-12-07T22:46:46;99129.38;;;2.78;100.00
64292;BME280;50628;51.008;13.658;2022-12-07T22:51:50;99127.31;;;2.69;100.00
64292;BME280;50628;51.008;13.658;2022-12-07T22:56:51;99117.78;;;2.71;100.00
64292;BME280;50628;51.008;13.658;2022-12-07T23:01:53;99111.16;;;2.67;100.00
64292;BME280;50628;51.008;13.658;2022-12-07T23:06:57;99107.41;;;2.58;100.00
64292;BME280;50628;51.008;13.658;2022-12-07T23:11:59;99114.03;;;2.62;100.00
64292;BME280;50628;51.008;13.658;2022-12-07T23:17:19;99120.06;;;2.61;100.00
64292;BME280;50628;51.008;13.658;2022-12-07T23:22:22;99108.03;;;2.62;100.00
64292;BME280;50628;51.008;13.658;2022-12-07T23:27:24;99113.44;;;2.57;100.00
64292;BME280;50628;51.008;13.658;2022-12-07T23:32:26;99102.91;;;2.62;100.00
64292;BME280;50628;51.008;13.658;2022-12-07T23:37:29;99108.16;;;2.60;100.00
64292;BME280;50628;51.008;13.658;2022-12-07T23:42:31;99103.28;;;2.55;100.00
64292;BME280;50628;51.008;13.658;2022-12-07T23:47:33;99094.44;;;2.59;100.00
64292;BME280;50628;51.008;13.658;2022-12-07T23:52:37;99091.53;;;2.66;100.00
64292;BME280;50628;51.008;13.658;2022-12-07T23:57:38;99088.91;;;2.67;100.00
